Hovedside
METAR-TAF:

METAR-TAF

Lufthavner :

Loei, Thailand

breddegrad: 17-27N, lengdegrad: 101-44E, høyde over havet: 253 m

Gjeldene værobservasjon

Denne rapporten ble laget for 1 time og 11 minutter siden, klokken 12:00 UTC
Vind 3 kt fra Nordvest
Temperatur 25°C
Luftfuktighet 100%
Trykk 1003 hPa
Sikt 10 km eller mer
Brutte skyer i en høyde av 3000 ft

METAR: VTUL 221200Z 31003KT 9999 BKN030 25/25 Q1003 NOSIG

Tid: 20:11 (13:11 UTC)

Varsel

Denne rapporten ble laget for 2 timer og 11 minutter siden, klokken 11:00 UTC
Varsel gyldig fra 22. klokken 12 UTC til 23. klokken 12 UTC
Vind 5 kt fra Sør
Sikt: 9000 m
Spredte skyer i en høyde av 3000 ft
Midlertidig
fra 23. klokken 08 UTC til 23. klokken 12 UTC
Vind 15 kt fra skiftende retning
Få skyer i en høyde av 1800 ft, Bygeskyer.
Brutte skyer i en høyde av 2500 ft
torden, lett regn,

TAF: VTUL 221100Z 2212/2312 18005KT 9000 SCT030 TEMPO 2308/2312 VRB15KT -TSRA FEW018CB BKN025

Værobservasjoner og værvarsel for over 4000 flyplasser (METAR- og TAF-rapporter).

Tilgjengelige stasjoner er representert av de røde og gule prikkene på kartet.

Hold musepekeren over prikken for å se navnet på stasjonen.

Klikk så for å se værobservasjoner og -varsler.

For å forandre kartet kan du klikke på den grønne knappen med svart kryss for å zoome inn, på den grønne knappen med strek for å zoome ut, eller på de grønne pilene for å se tilstøtende kart.


METAR-TAF: